createdAt,value
2023-05-25T00:06:15.723Z,7.30
2023-05-25T00:21:18.416Z,7.10
2023-05-25T00:36:20.075Z,6.94
2023-05-25T00:51:21.905Z,6.84
2023-05-25T01:06:27.166Z,6.76
2023-05-25T01:21:29.388Z,6.59
2023-05-25T01:36:33.475Z,6.42
2023-05-25T01:51:35.160Z,6.44
2023-05-25T02:06:37.403Z,6.44
2023-05-25T02:21:41.227Z,6.59
2023-05-25T02:36:43.610Z,6.68
2023-05-25T02:51:45.438Z,6.58
2023-05-25T03:06:47.444Z,6.58
2023-05-25T03:21:53.122Z,6.53
2023-05-25T03:36:55.742Z,6.43
2023-05-25T03:52:00.294Z,6.44
2023-05-25T04:07:02.142Z,7.14
2023-05-25T04:22:05.000Z,8.33
2023-05-25T04:37:09.213Z,9.22
2023-05-25T04:52:11.778Z,10.03
2023-05-25T05:07:14.214Z,10.79
2023-05-25T05:22:16.251Z,10.73
2023-05-25T05:37:19.712Z,11.85
2023-05-25T05:52:21.723Z,13.43
2023-05-25T06:07:23.613Z,13.00
2023-05-25T06:22:28.110Z,13.70
2023-05-25T06:37:35.416Z,11.33
2023-05-25T06:52:39.513Z,11.28
2023-05-25T07:07:41.157Z,11.35
2023-05-25T07:22:43.772Z,12.14
2023-05-25T07:37:45.404Z,12.40
2023-05-25T07:52:47.029Z,14.02
2023-05-25T08:07:48.653Z,14.33
2023-05-25T08:22:53.705Z,15.72
2023-05-25T08:37:55.360Z,15.05
2023-05-25T08:52:56.974Z,16.29
2023-05-25T09:07:58.628Z,17.28
2023-05-25T09:23:00.368Z,16.21
2023-05-25T09:38:02.349Z,17.95
2023-05-25T09:53:04.395Z,18.25
2023-05-25T10:08:06.088Z,18.12
2023-05-25T10:23:07.743Z,18.80
2023-05-25T10:38:09.559Z,19.23
2023-05-25T10:53:11.542Z,18.74
2023-05-25T11:08:14.407Z,19.00
2023-05-25T11:23:16.063Z,19.64
2023-05-25T11:38:18.242Z,20.14
2023-05-25T11:53:19.860Z,20.93
2023-05-25T12:08:21.532Z,20.79
2023-05-25T12:23:23.136Z,19.99
2023-05-25T12:38:24.834Z,19.72
2023-05-25T12:53:27.439Z,19.68
2023-05-25T13:08:29.244Z,20.32
2023-05-25T13:23:30.866Z,19.65
2023-05-25T13:38:32.608Z,19.88
2023-05-25T13:53:34.302Z,19.67
2023-05-25T14:08:36.024Z,19.98
2023-05-25T14:23:37.657Z,19.89
2023-05-25T14:38:39.397Z,20.01
2023-05-25T14:53:47.059Z,19.86
2023-05-25T15:08:48.685Z,20.21
2023-05-25T15:23:50.415Z,19.93
2023-05-25T15:38:52.095Z,19.88
2023-05-25T15:53:54.967Z,19.88
2023-05-25T16:08:58.800Z,19.88
2023-05-25T16:24:00.721Z,19.85
2023-05-25T16:39:02.347Z,19.81
2023-05-25T16:54:04.386Z,19.67
2023-05-25T17:09:06.118Z,19.33
2023-05-25T17:24:07.922Z,19.23
2023-05-25T17:39:09.617Z,18.97
2023-05-25T17:54:15.568Z,18.71
2023-05-25T18:09:17.216Z,18.36
2023-05-25T18:24:19.070Z,18.14
2023-05-25T18:39:20.788Z,17.58
2023-05-25T18:54:22.672Z,17.11
2023-05-25T19:09:24.286Z,16.54
2023-05-25T19:24:25.923Z,16.15
2023-05-25T19:39:28.282Z,15.80
2023-05-25T19:54:29.894Z,15.63
2023-05-25T20:09:31.820Z,15.40
2023-05-25T20:24:33.644Z,15.29
2023-05-25T20:39:36.123Z,15.08
2023-05-25T20:54:42.197Z,14.90
2023-05-25T21:09:44.215Z,14.57
2023-05-25T21:24:45.915Z,14.34
2023-05-25T21:39:47.636Z,14.12
2023-05-25T21:54:49.512Z,13.77
2023-05-25T22:09:51.164Z,13.51
2023-05-25T22:24:52.877Z,13.33
2023-05-25T22:39:54.528Z,13.20
2023-05-25T22:54:56.260Z,13.10
2023-05-25T23:09:57.959Z,12.77
2023-05-25T23:25:00.180Z,12.58
2023-05-25T23:40:02.110Z,12.38
2023-05-25T23:55:03.773Z,12.25
